الصفحة الرئيسية
METAR-TAF:

METAR-TAF

مطار :

مطار نيكولا تسلا في بلغراد

بلغراد, صربيا

دائرة عرض: 44-49N, خط طول: 020-17E, ارتفاع: 96 متر

مراقبة الطقس الحالي

تاريخ ووقت الإصدار 14 دقيقة قبل الساعة 18:00UTC
ريح 6 عقدة من الجنوب/الجنوب الشرقي
درجة الحرارة 4°درجة مئوية
الرطوبة 52%
ضغط 1020 hPa
الرؤية 10 كم أو أكثر
الغيوم لا تقل 1500 م ولا وجود لمزنة ركامية السحاب الأسود

METAR: LYBE 011800Z 16006KT CAVOK 04/M05 Q1020 NOSIG

زمن: 20:14 (18:14 UTC)

توقعات

تاريخ ووقت الإصدار 1ساعة و 14 دقيقة قبل الساعة 17:00UTC
التوقعات صالحة من01 الساعة 18 UTC إلى 02 الساعة 18 UTC
ريح 8 عقدة من الجنوب/الجنوب الشرقي
الرؤية 10 كم أو أكثر
غيوم متفرقة على ارتفاع 4000 قدم
مؤقت
من 02 الساعة 03 UTC إلى 02 الساعة 05 UTC
الرؤية: 4000 متر
غشاء

TAF: LYBE 011700Z 0118/0218 15008KT 9999 SCT040 TX08/0212Z TN00/0204Z TEMPO 0203/0205 4000 BR

أرصاد الطقس والتوقعات من أكثر من 4000 مطار (تقارير الطقس للمطار METAR والتنبؤ بالطقس بالمطارTAF).

المحطات المتاحة هي النقط الصفراء والحمراء على الخريطة.

حرك المؤشر فوق النقطة لمعرفة اسم المحطة.

ثم انقر لمعرفة أرصاد وتوقعات الطقس.

لتغيير الخارطة: اضغط على الأزرار الخضراء مع رمز الصليب الأسود للتكبير. على الزر الأخضر مع شرطة للتصغير، أو على الأسهم الخضراء للخرائط المجاورة.


METAR-TAF: